Weather observations for the past three days for
Schenectady Airport
Metric (Imperial)
Date Time (edt) Wind (kph) Vis. (km) Weather Sky Cond. Temperature (ºC) Relative Humidity Wind Chill (°C) Heat Index (°C) Pressure Precipitation (cm)
Air Dwpt 6 hour altimeter (cm) sea level (mb) 1 hr 3 hr 6 hr
Max. Min.
02 10:46 S 7 16.09 Overcast OVC020 19 14 73% 76.56 0.0
02 09:46 S 13 16.09 Overcast OVC020 19 15 78% 76.56 0.0
02 08:46 S 11 16.09 Overcast SCT013 OVC018 18 17 94% 76.53 0.0
02 07:45 S 7 16.09 Overcast OVC015 18 17 94% 76.53 0.0
01 21:59 S 6 4.02 Light Drizzle SCT006 BKN014 OVC019 19 19 100% 76.35 0.0
01 19:50 Calm 16.09 Overcast OVC018 21 20 94% 76.25 0.0
01 16:54 N 9 16.09 Overcast OVC020 22 20 88% 76.23 0.0
01 14:45 NE 15 16.09 Overcast OVC011 21 21 100% 76.2 0.0
01 13:45 NE 9 8.05 Overcast OVC007 21 21 100% 76.2 0.0
01 11:46 Calm 8.05 Overcast BKN005 OVC011 21 21 100% 76.2 0.0
01 10:45 N 6 16.09 Overcast OVC005 19 19 100% 76.23 0.0
01 09:45 E 9 16.09 Overcast BKN005 OVC011 20 19 94% 76.23 0.0
01 08:45 NE 13 11.27 Rain OVC005 19 19 100% 76.23 0.0
01 07:45 NE 6 11.27 Rain BKN005 BKN014 OVC060 19 19 100% 76.23 0.0
31 21:48 Calm 16.09 Fair CLR 20 19 94% 76.38 0.0
31 16:49 SW 9 6.44 Heavy Drizzle SCT029 OVC040 22 18 78% 76.43 0.0
31 15:54 Vrbl 9 16.09 Overcast SCT032 BKN041 OVC120 27 16 51% 27 76.4 0.0
31 08:55 E 6 16.09 Fair CLR 21 18 83% 76.61 0.0
30 20:45 NW 6 16.09 Overcast SCT014 SCT030 OVC090 19 17 88% 76.45 0.0
30 19:48 W 11 16.09 Overcast BKN075 OVC085 20 16 78% 76.38 0.0
30 18:45 W 17 G 30 16.09 Overcast OVC050 21 16 73% 76.38 0.0
30 17:59 W 19 G 30 16.09 Overcast OVC060 22 15 65% 76.35 0.0
30 16:55 NW 11 16.09 Overcast OVC070 24 14 54% 25 76.33 0.0
30 14:59 S 7 16.09 Partly Cloudy SCT100 SCT120 27 17 54% 28 76.35 0.0
30 13:54 Calm 16.09 Overcast OVC110 25 16 57% 26 76.4 0.0
Date Time (edt) Wind (kph) Vis. (km) Weather Sky Cond. Air Dwpt Max. Min. Relative Humidity Wind Chill (°C) Heat Index (°C) altimeter (cm) sea level (mb) 1 hr 3 hr 6 hr
6 hour
Temperature (ºC) Pressure Precipitation (cm)